Time;durP1;ratioP1;P1;durP2;ratioP2;P2;SDS_P1;SDS_P2;PMS_P1;PMS_P2;Temp;Humidity;BMP_temperature;BMP_pressure;BME280_temperature;BME280_humidity;BME280_pressure;Samples;Min_cycle;Max_cycle;Signal;HPM_P1;HPM_P2
2021/04/03 00:00:32;;;;;;;7.68;5.30;;;5.70;91.20;;;;;;5026781;28;20240;-70
2021/04/03 00:02:59;;;;;;;6.80;4.10;;;5.70;91.30;;;;;;5028015;28;20244;-71
2021/04/03 00:05:27;;;;;;;7.57;5.35;;;5.70;91.00;;;;;;5025490;28;20289;-72
2021/04/03 00:07:53;;;;;;;5.88;5.00;;;5.70;90.80;;;;;;5025473;28;20229;-71
2021/04/03 00:10:25;;;;;;;6.13;4.75;;;5.80;90.80;;;;;;5023896;28;20968;-71
2021/04/03 00:12:52;;;;;;;8.73;5.30;;;5.70;90.60;;;;;;5025563;28;20299;-72
2021/04/03 00:15:20;;;;;;;6.00;5.40;;;5.70;90.80;;;;;;5024822;28;20221;-71
2021/04/03 00:17:47;;;;;;;5.30;4.80;;;5.70;90.90;;;;;;5025198;28;20949;-71
2021/04/03 00:20:16;;;;;;;6.35;4.55;;;5.60;90.90;;;;;;5024879;28;20587;-71
2021/04/03 00:22:45;;;;;;;6.00;5.15;;;5.60;91.00;;;;;;5023599;28;20229;-71
2021/04/03 00:25:13;;;;;;;11.63;5.35;;;5.60;91.20;;;;;;5025011;28;20606;-71
2021/04/03 00:27:40;;;;;;;8.32;5.18;;;5.60;91.50;;;;;;5025307;28;20214;-70
2021/04/03 00:30:15;;;;;;;7.88;5.10;;;5.60;90.90;;;;;;5024003;28;20212;-71
2021/04/03 00:32:44;;;;;;;8.70;5.63;;;5.70;90.90;;;;;;5025174;28;20844;-71
2021/04/03 00:35:12;;;;;;;8.07;5.50;;;5.70;90.80;;;;;;5025175;28;20214;-70
2021/04/03 00:37:39;;;;;;;7.15;5.75;;;5.70;90.80;;;;;;5024729;28;20197;-70
2021/04/03 00:40:09;;;;;;;6.63;5.15;;;5.70;90.20;;;;;;5024465;28;20233;-71
2021/04/03 00:42:35;;;;;;;9.55;6.13;;;5.70;90.10;;;;;;5024351;28;20230;-71
2021/04/03 00:45:02;;;;;;;12.68;5.75;;;5.80;90.00;;;;;;5024766;28;20284;-70
2021/04/03 00:47:29;;;;;;;10.55;4.97;;;5.80;89.90;;;;;;5024443;28;20205;-71
2021/04/03 00:49:57;;;;;;;6.18;4.47;;;5.80;89.40;;;;;;5023007;28;20201;-71
2021/04/03 00:52:23;;;;;;;8.43;5.40;;;5.70;89.60;;;;;;5024626;28;20229;-71
2021/04/03 00:54:50;;;;;;;6.05;5.30;;;5.70;88.50;;;;;;5024526;28;20209;-71
2021/04/03 00:57:17;;;;;;;9.40;5.65;;;5.60;88.30;;;;;;5024500;28;20372;-71
2021/04/03 00:59:44;;;;;;;9.32;6.35;;;5.60;87.60;;;;;;5023672;28;20688;-71
2021/04/03 01:02:11;;;;;;;5.85;4.88;;;5.60;87.60;;;;;;5024347;28;20309;-71
2021/04/03 01:04:38;;;;;;;8.18;5.53;;;5.50;87.50;;;;;;5024172;28;20259;-71
2021/04/03 01:07:06;;;;;;;9.00;5.70;;;5.50;87.90;;;;;;5023541;28;20206;-71
2021/04/03 01:09:36;;;;;;;7.80;4.88;;;5.50;87.30;;;;;;5026306;28;20201;-71
2021/04/03 01:12:12;;;;;;;5.55;4.78;;;5.50;87.30;;;;;;5030552;28;20221;-71
2021/04/03 01:34:25;;;;;;;7.68;5.00;;;5.50;86.80;;;;;;5045278;22;20299;-68
2021/04/03 01:36:57;;;;;;;10.32;4.70;;;5.50;86.70;;;;;;5069460;28;20224;-69
2021/04/03 01:39:24;;;;;;;9.10;4.90;;;5.50;86.40;;;;;;5069564;28;20215;-69
2021/04/03 01:41:54;;;;;;;7.03;4.90;;;5.50;86.40;;;;;;5069627;28;20641;-69
2021/04/03 01:44:25;;;;;;;4.80;4.25;;;5.50;86.50;;;;;;5069578;28;20581;-69
2021/04/03 01:46:52;;;;;;;5.97;4.80;;;5.50;87.00;;;;;;5069779;28;20755;-69
2021/04/03 01:49:23;;;;;;;6.95;4.97;;;5.40;87.00;;;;;;5069081;28;20200;-69
2021/04/03 01:51:50;;;;;;;6.68;4.60;;;5.40;86.90;;;;;;5069696;28;20220;-69
2021/04/03 01:54:18;;;;;;;5.38;4.70;;;5.40;87.20;;;;;;5069443;28;20200;-69
2021/04/03 01:56:48;;;;;;;7.70;5.53;;;5.40;87.40;;;;;;5069934;28;20225;-69
2021/04/03 01:59:15;;;;;;;8.90;5.30;;;5.40;87.50;;;;;;5068991;28;20261;-69
2021/04/03 02:01:43;;;;;;;8.95;5.18;;;5.40;87.20;;;;;;5069262;28;20587;-69
2021/04/03 02:04:13;;;;;;;6.43;5.03;;;5.40;87.40;;;;;;5069285;28;20204;-69
2021/04/03 02:06:42;;;;;;;11.07;5.35;;;5.40;87.60;;;;;;5069417;28;20196;-70
2021/04/03 02:09:10;;;;;;;6.20;4.40;;;5.40;87.70;;;;;;5069498;28;20571;-69
2021/04/03 02:11:38;;;;;;;6.32;5.15;;;5.40;87.90;;;;;;5069117;28;20251;-68
2021/04/03 02:14:05;;;;;;;8.13;5.43;;;5.40;87.70;;;;;;5069198;28;20205;-70
2021/04/03 02:16:33;;;;;;;8.77;5.55;;;5.40;87.60;;;;;;5069565;28;20291;-70
2021/04/03 02:19:01;;;;;;;7.25;5.18;;;5.40;88.10;;;;;;5068772;28;20204;-70
2021/04/03 02:21:28;;;;;;;6.68;5.60;;;5.30;89.10;;;;;;5069579;28;20227;-70
2021/04/03 02:23:57;;;;;;;6.80;4.97;;;5.20;88.50;;;;;;5069376;28;20200;-70
2021/04/03 02:26:23;;;;;;;16.55;5.68;;;5.20;88.50;;;;;;5069298;28;20199;-69
2021/04/03 02:28:49;;;;;;;7.40;5.45;;;5.20;88.80;;;;;;5068383;28;20208;-70
2021/04/03 02:31:16;;;;;;;9.07;5.55;;;5.20;89.10;;;;;;5068687;28;20722;-69
2021/04/03 02:33:42;;;;;;;7.18;5.68;;;5.10;89.60;;;;;;5069194;28;20219;-71
2021/04/03 02:36:08;;;;;;;7.22;5.50;;;5.10;90.00;;;;;;5068923;28;20499;-70
2021/04/03 02:38:36;;;;;;;6.63;5.53;;;5.10;90.00;;;;;;5068713;28;20204;-71
2021/04/03 02:41:05;;;;;;;7.30;5.63;;;5.10;89.80;;;;;;5069117;28;20600;-70
2021/04/03 02:43:40;;;;;;;8.07;5.68;;;5.10;90.00;;;;;;5069011;28;20608;-70
2021/04/03 02:46:14;;;;;;;7.38;5.53;;;5.10;90.10;;;;;;5068697;28;20203;-70
2021/04/03 02:48:49;;;;;;;6.28;4.60;;;5.00;90.20;;;;;;5068223;28;20679;-70
2021/04/03 02:51:21;;;;;;;8.70;5.65;;;5.00;90.30;;;;;;5068705;28;20836;-70
2021/04/03 02:53:50;;;;;;;8.98;5.18;;;5.00;90.40;;;;;;5068549;28;20205;-70
2021/04/03 02:56:17;;;;;;;9.38;5.13;;;5.10;90.10;;;;;;5068573;28;20223;-70
2021/04/03 02:58:44;;;;;;;5.07;4.57;;;5.00;89.50;;;;;;5068127;28;20208;-71
2021/04/03 03:01:13;;;;;;;5.55;4.45;;;5.00;89.70;;;;;;5068361;28;20727;-70
2021/04/03 03:03:41;;;;;;;5.00;4.10;;;5.00;89.80;;;;;;5068792;28;20201;-70
2021/04/03 03:06:07;;;;;;;8.23;4.80;;;5.00;89.40;;;;;;5068250;28;20218;-69
2021/04/03 03:08:36;;;;;;;5.82;4.30;;;5.10;89.50;;;;;;5068227;28;20211;-71
2021/04/03 03:11:04;;;;;;;6.45;4.40;;;5.00;89.40;;;;;;5068188;28;20228;-70
2021/04/03 03:13:33;;;;;;;7.15;5.10;;;5.10;89.30;;;;;;5068502;28;20196;-69
2021/04/03 03:16:01;;;;;;;10.73;4.30;;;5.10;89.70;;;;;;5068439;28;20224;-70
2021/04/03 03:18:28;;;;;;;7.07;5.00;;;5.00;89.80;;;;;;5068037;28;20307;-69
2021/04/03 03:20:56;;;;;;;7.32;4.63;;;5.00;89.40;;;;;;5068363;28;20331;-70
2021/04/03 03:23:23;;;;;;;8.88;4.88;;;5.00;89.60;;;;;;5068402;28;20247;-69
2021/04/03 03:25:49;;;;;;;11.05;4.30;;;5.00;89.60;;;;;;5068489;28;20204;-69
2021/04/03 03:28:17;;;;;;;6.80;4.25;;;5.00;89.40;;;;;;5068327;28;20529;-69
2021/04/03 03:30:43;;;;;;;7.63;4.20;;;5.00;89.70;;;;;;5068080;28;20270;-70
2021/04/03 03:33:10;;;;;;;4.45;4.03;;;5.00;89.30;;;;;;5068143;28;20597;-70
2021/04/03 03:35:36;;;;;;;5.72;4.97;;;5.00;89.10;;;;;;5068169;28;20225;-69
2021/04/03 03:38:03;;;;;;;7.20;4.25;;;5.00;89.60;;;;;;5068233;28;20219;-70
2021/04/03 03:40:30;;;;;;;6.35;4.60;;;4.90;89.30;;;;;;5069206;28;20204;-70
2021/04/03 03:42:57;;;;;;;6.93;4.70;;;4.90;89.90;;;;;;5071914;28;20631;-69
2021/04/03 03:45:24;;;;;;;8.23;5.00;;;4.80;90.00;;;;;;5071956;28;20212;-69
2021/04/03 03:47:51;;;;;;;5.38;4.50;;;4.80;90.10;;;;;;5071873;28;20204;-70
2021/04/03 03:50:17;;;;;;;4.40;4.00;;;4.80;90.10;;;;;;5071174;28;20196;-70
2021/04/03 03:52:44;;;;;;;6.93;4.70;;;4.70;90.00;;;;;;5071624;28;20232;-70
2021/04/03 03:55:11;;;;;;;8.75;4.25;;;4.70;90.10;;;;;;5071603;28;20572;-69
2021/04/03 03:57:37;;;;;;;6.00;3.78;;;4.70;90.10;;;;;;5071808;28;20574;-69
2021/04/03 04:00:05;;;;;;;6.65;5.38;;;4.60;90.00;;;;;;5070969;28;20204;-70
2021/04/03 04:02:32;;;;;;;6.13;4.40;;;4.60;90.00;;;;;;5071946;28;20694;-70
2021/04/03 04:04:58;;;;;;;4.82;4.32;;;4.60;90.10;;;;;;5071385;28;20208;-70
2021/04/03 04:07:25;;;;;;;5.72;4.35;;;4.60;90.30;;;;;;5071386;28;20703;-70
2021/04/03 04:09:51;;;;;;;5.63;4.40;;;4.60;90.20;;;;;;5071123;28;20659;-70
2021/04/03 04:12:17;;;;;;;5.28;3.90;;;4.60;90.40;;;;;;5071053;28;20580;-69
2021/04/03 04:14:43;;;;;;;7.88;4.35;;;4.50;90.30;;;;;;5071640;28;20579;-69
2021/04/03 04:17:10;;;;;;;7.55;5.03;;;4.40;90.30;;;;;;5070984;28;20220;-70
2021/04/03 04:19:37;;;;;;;6.32;4.45;;;4.40;90.30;;;;;;5070974;28;20204;-69
2021/04/03 04:22:04;;;;;;;5.60;4.63;;;4.30;90.40;;;;;;5071504;28;20224;-70
2021/04/03 04:24:30;;;;;;;4.38;3.90;;;4.30;90.40;;;;;;5071099;28;20211;-71
2021/04/03 04:26:56;;;;;;;5.75;4.10;;;4.30;90.60;;;;;;5071193;28;20204;-69
2021/04/03 04:29:22;;;;;;;8.02;4.85;;;4.20;90.80;;;;;;5070361;28;20215;-70
2021/04/03 04:31:48;;;;;;;5.60;4.20;;;4.10;91.00;;;;;;5071038;28;20220;-69
2021/04/03 04:34:15;;;;;;;6.32;5.05;;;4.00;91.10;;;;;;5071003;28;20679;-70
2021/04/03 04:36:42;;;;;;;5.53;4.32;;;4.00;91.50;;;;;;5070781;28;20613;-69
2021/04/03 04:39:08;;;;;;;6.18;4.43;;;3.90;91.30;;;;;;5070316;28;20209;-70
2021/04/03 04:41:34;;;;;;;7.45;4.97;;;3.90;91.60;;;;;;5070709;28;20227;-70
2021/04/03 04:44:01;;;;;;;6.20;3.95;;;3.90;91.70;;;;;;5070909;28;20208;-69
2021/04/03 04:46:27;;;;;;;5.75;4.90;;;3.90;91.70;;;;;;5070790;28;20566;-69
2021/04/03 04:48:53;;;;;;;9.70;4.75;;;3.90;91.70;;;;;;5070092;28;20204;-69
2021/04/03 04:51:19;;;;;;;10.05;5.25;;;4.00;92.00;;;;;;5069955;28;20235;-69
2021/04/03 04:53:46;;;;;;;6.45;4.57;;;4.00;92.00;;;;;;5070126;28;20246;-69
2021/04/03 04:56:13;;;;;;;7.88;4.57;;;4.00;92.30;;;;;;5070279;28;20224;-69
2021/04/03 04:58:39;;;;;;;9.05;5.63;;;4.00;92.00;;;;;;5069689;28;20208;-68
2021/04/03 05:01:05;;;;;;;7.47;4.47;;;4.00;92.00;;;;;;5070235;28;20228;-69
2021/04/03 05:03:31;;;;;;;8.23;5.07;;;4.00;92.10;;;;;;5070660;28;20277;-69
2021/04/03 05:05:58;;;;;;;8.35;5.05;;;4.00;92.30;;;;;;5069973;28;20200;-69
2021/04/03 05:08:24;;;;;;;9.85;5.05;;;4.00;92.20;;;;;;5069842;28;20572;-69
2021/04/03 05:10:51;;;;;;;10.13;4.38;;;4.00;92.20;;;;;;5069852;28;20220;-69
2021/04/03 05:13:17;;;;;;;4.78;3.90;;;4.10;92.10;;;;;;5070160;28;20200;-69
2021/04/03 05:15:43;;;;;;;8.48;4.45;;;4.10;91.90;;;;;;5069969;28;20280;-69
2021/04/03 05:18:10;;;;;;;6.07;4.40;;;4.10;91.80;;;;;;5069838;28;20200;-69
2021/04/03 05:20:36;;;;;;;4.32;3.65;;;4.10;91.60;;;;;;5069765;28;20204;-69
2021/04/03 05:23:02;;;;;;;5.65;4.30;;;4.10;91.70;;;;;;5069808;28;20201;-69
2021/04/03 05:25:29;;;;;;;6.20;4.20;;;4.10;91.90;;;;;;5070012;28;20208;-69
2021/04/03 05:27:56;;;;;;;5.13;3.67;;;4.20;91.80;;;;;;5069973;28;20197;-69
2021/04/03 05:30:23;;;;;;;6.88;4.93;;;4.20;91.80;;;;;;5069053;28;20208;-70
2021/04/03 05:32:50;;;;;;;4.93;3.92;;;4.10;91.80;;;;;;5069901;28;20215;-69
2021/04/03 05:35:16;;;;;;;4.63;3.60;;;4.20;91.70;;;;;;5069214;28;20212;-69
2021/04/03 05:37:44;;;;;;;7.22;5.07;;;4.20;91.80;;;;;;5069700;28;20226;-69
2021/04/03 05:40:12;;;;;;;5.32;3.95;;;4.20;91.80;;;;;;5068937;28;20205;-70
2021/04/03 05:42:41;;;;;;;5.65;4.15;;;4.20;91.70;;;;;;5069509;28;20224;-69
2021/04/03 05:45:14;;;;;;;9.93;3.90;;;4.30;91.70;;;;;;5069398;28;20231;-69
2021/04/03 05:47:40;;;;;;;5.30;3.67;;;4.30;91.50;;;;;;5068881;28;20204;-69
2021/04/03 05:50:08;;;;;;;9.30;4.05;;;4.30;91.50;;;;;;5068755;28;20663;-69
2021/04/03 05:52:34;;;;;;;6.55;4.47;;;4.30;91.70;;;;;;5069545;28;20227;-69
2021/04/03 05:55:02;;;;;;;10.45;4.15;;;4.30;91.70;;;;;;5068868;28;20197;-69
2021/04/03 05:57:28;;;;;;;7.22;3.72;;;4.40;91.70;;;;;;5069744;28;20224;-68
2021/04/03 05:59:54;;;;;;;6.75;4.25;;;4.40;91.70;;;;;;5068664;28;20764;-69
2021/04/03 06:02:21;;;;;;;6.43;3.42;;;4.60;91.40;;;;;;5069362;28;20227;-69
2021/04/03 06:04:51;;;;;;;5.15;3.90;;;4.60;91.20;;;;;;5069411;28;20200;-69
2021/04/03 06:07:17;;;;;;;5.45;3.90;;;4.70;91.20;;;;;;5072359;28;20241;-70
2021/04/03 06:09:44;;;;;;;4.40;4.00;;;4.70;91.40;;;;;;5070484;28;20524;-69
2021/04/03 06:12:10;;;;;;;5.20;3.88;;;4.80;91.20;;;;;;5069008;28;20224;-70
2021/04/03 06:14:37;;;;;;;4.68;3.42;;;5.00;91.20;;;;;;5069242;28;20615;-70
2021/04/03 06:17:04;;;;;;;4.40;3.45;;;5.00;91.00;;;;;;5068918;28;20582;-70
2021/04/03 06:19:34;;;;;;;6.80;3.40;;;5.20;91.00;;;;;;5068806;28;20200;-70
2021/04/03 06:22:01;;;;;;;3.42;3.10;;;5.30;90.70;;;;;;5068637;28;20224;-69
2021/04/03 06:24:30;;;;;;;3.97;3.58;;;5.40;90.40;;;;;;5069043;28;20682;-70
2021/04/03 06:26:58;;;;;;;4.10;3.53;;;5.50;90.10;;;;;;5069485;28;20197;-71
2021/04/03 06:29:27;;;;;;;7.57;4.70;;;5.60;90.00;;;;;;5068216;28;20209;-69
2021/04/03 06:31:55;;;;;;;6.15;3.35;;;5.60;89.70;;;;;;5068789;28;20253;-70
2021/04/03 06:34:46;;;;;;;8.30;3.47;;;5.70;90.00;;;;;;5068876;28;20215;-70
2021/04/03 06:37:13;;;;;;;5.80;4.25;;;5.60;90.20;;;;;;5064902;28;20433;-70
2021/04/03 06:39:54;;;;;;;4.07;3.47;;;5.60;90.10;;;;;;5068489;28;20613;-69
2021/04/03 06:42:42;;;;;;;7.43;3.80;;;5.70;90.00;;;;;;5068616;28;20232;-70
2021/04/03 06:45:22;;;;;;;6.70;3.75;;;5.80;90.10;;;;;;5068684;28;20196;-69
2021/04/03 06:47:50;;;;;;;7.38;3.28;;;5.70;90.50;;;;;;5068974;28;20246;-70
2021/04/03 06:50:18;;;;;;;4.25;3.60;;;5.80;90.40;;;;;;5068122;28;20196;-69
2021/04/03 06:52:45;;;;;;;6.32;3.20;;;6.00;89.90;;;;;;5068984;28;20286;-70
2021/04/03 06:55:13;;;;;;;5.93;3.85;;;6.20;89.40;;;;;;5068375;28;20234;-71
2021/04/03 06:57:42;;;;;;;4.88;3.78;;;6.20;88.90;;;;;;5068761;28;20228;-71
2021/04/03 07:00:09;;;;;;;6.35;3.33;;;6.20;88.40;;;;;;5068155;28;20676;-71
2021/04/03 07:02:44;;;;;;;3.78;3.40;;;6.20;88.50;;;;;;5065867;28;20224;-71
2021/04/03 07:05:13;;;;;;;8.98;3.90;;;6.20;89.30;;;;;;5028486;28;20232;-70
2021/04/03 07:07:43;;;;;;;8.02;3.60;;;6.10;89.20;;;;;;5044485;28;20217;-70
2021/04/03 07:10:12;;;;;;;6.05;3.50;;;6.20;89.40;;;;;;5048587;28;20201;-71
2021/04/03 07:12:40;;;;;;;4.57;3.55;;;6.10;89.40;;;;;;5049474;28;20259;-69
2021/04/03 07:15:08;;;;;;;5.00;4.03;;;6.20;89.50;;;;;;5118788;22;20236;-72
2021/04/03 07:17:38;;;;;;;3.90;3.50;;;6.30;89.60;;;;;;5061123;28;20746;-72
2021/04/03 07:20:11;;;;;;;6.50;4.35;;;6.40;89.60;;;;;;5052470;28;20205;-72
2021/04/03 07:22:41;;;;;;;8.52;4.50;;;6.40;87.40;;;;;;5022649;28;20598;-73
2021/04/03 07:25:09;;;;;;;6.13;4.30;;;6.40;87.90;;;;;;5013017;28;20207;-73
2021/04/03 07:27:38;;;;;;;7.97;3.92;;;6.50;87.90;;;;;;5013445;28;20584;-72
2021/04/03 07:30:06;;;;;;;4.80;3.42;;;6.70;88.40;;;;;;5012554;28;20206;-71
2021/04/03 07:32:38;;;;;;;3.50;3.20;;;6.80;87.50;;;;;;5013457;28;20360;-72
2021/04/03 07:35:19;;;;;;;3.95;3.03;;;7.00;87.80;;;;;;5012510;28;20206;-73
2021/04/03 07:37:47;;;;;;;3.75;3.25;;;7.10;86.10;;;;;;5012310;28;20225;-71
2021/04/03 07:40:15;;;;;;;7.82;3.80;;;7.10;87.00;;;;;;5012387;28;20248;-71
2021/04/03 07:42:42;;;;;;;5.32;3.28;;;7.40;86.40;;;;;;5012950;28;20219;-71
2021/04/03 07:45:53;;;;;;;7.75;3.70;;;7.90;85.70;;;;;;5020145;28;20260;-72
2021/04/03 07:48:50;;;;;;;3.65;3.22;;;8.50;84.40;;;;;;4970538;28;20710;-72
2021/04/03 07:51:43;;;;;;;6.32;3.60;;;9.00;82.40;;;;;;5030273;28;20232;-71
2021/04/03 07:54:27;;;;;;;4.95;2.92;;;9.50;81.40;;;;;;5017956;28;20199;-72
2021/04/03 07:57:02;;;;;;;3.72;3.05;;;9.90;78.80;;;;;;5012051;28;20241;-72
2021/04/03 07:59:53;;;;;;;3.10;2.70;;;9.70;78.60;;;;;;5011855;28;20554;-72
2021/04/03 08:02:27;;;;;;;3.45;2.88;;;9.30;79.30;;;;;;5012001;28;20325;-72
2021/04/03 08:04:56;;;;;;;4.32;3.17;;;8.90;80.90;;;;;;5012056;28;20202;-72
2021/04/03 08:07:23;;;;;;;5.63;3.20;;;8.70;80.60;;;;;;5012291;28;20203;-72
2021/04/03 08:09:50;;;;;;;4.63;3.10;;;8.40;80.10;;;;;;5011632;28;20284;-71
2021/04/03 08:12:21;;;;;;;5.63;3.60;;;8.10;80.40;;;;;;5011671;28;20226;-71
2021/04/03 08:14:57;;;;;;;5.45;3.00;;;7.80;81.30;;;;;;5011490;28;20214;-70
2021/04/03 08:17:24;;;;;;;7.80;2.85;;;7.60;81.60;;;;;;5010717;28;20594;-71
2021/04/03 08:19:51;;;;;;;5.15;3.00;;;7.50;82.00;;;;;;5010214;28;20622;-71
2021/04/03 08:22:17;;;;;;;5.15;2.70;;;7.40;82.30;;;;;;5010560;28;20650;-73
2021/04/03 08:25:01;;;;;;;6.10;2.80;;;7.30;83.20;;;;;;5010787;28;20260;-72
2021/04/03 08:27:32;;;;;;;5.43;3.20;;;7.30;83.30;;;;;;5009716;28;20210;-72
2021/04/03 08:29:59;;;;;;;6.05;3.45;;;7.40;83.30;;;;;;5009937;28;20203;-72
2021/04/03 08:32:25;;;;;;;4.10;3.05;;;7.80;85.40;;;;;;5010537;28;20300;-71
2021/04/03 08:34:51;;;;;;;5.65;2.72;;;8.80;82.30;;;;;;5010208;28;20203;-72
2021/04/03 08:37:18;;;;;;;3.42;3.00;;;9.80;80.90;;;;;;5010445;28;20264;-72
2021/04/03 08:39:44;;;;;;;7.05;3.08;;;11.10;75.90;;;;;;5010281;28;20203;-72
2021/04/03 08:42:12;;;;;;;3.17;2.88;;;11.90;74.30;;;;;;5010025;28;20253;-72
2021/04/03 08:44:43;;;;;;;4.82;3.10;;;12.50;71.50;;;;;;5010191;28;20301;-71
2021/04/03 08:47:21;;;;;;;4.95;2.85;;;13.10;71.20;;;;;;5628201;22;20662;-72
2021/04/03 08:49:48;;;;;;;4.63;3.10;;;13.80;69.60;;;;;;5024854;28;554084;-72
2021/04/03 08:52:14;;;;;;;4.53;2.70;;;14.00;67.70;;;;;;5050786;28;20193;-73
2021/04/03 08:54:42;;;;;;;4.87;2.70;;;14.30;67.00;;;;;;5044250;28;20503;-72
2021/04/03 08:57:25;;;;;;;5.80;2.97;;;14.40;66.10;;;;;;5047712;28;21005;-72
2021/04/03 08:59:54;;;;;;;3.53;3.23;;;15.00;66.10;;;;;;5047741;28;20463;-72
2021/04/03 09:02:21;;;;;;;4.40;2.73;;;15.60;65.00;;;;;;5047449;28;20495;-72
2021/04/03 09:04:48;;;;;;;4.30;2.57;;;16.20;63.10;;;;;;5047774;28;20473;-72
2021/04/03 09:07:31;;;;;;;4.20;2.33;;;16.60;60.90;;;;;;5047490;28;20579;-72
2021/04/03 09:10:06;;;;;;;5.33;2.63;;;16.40;60.50;;;;;;5031214;28;20522;-72
2021/04/03 09:12:33;;;;;;;2.67;2.20;;;17.10;60.50;;;;;;5027690;28;21244;-71
2021/04/03 09:15:00;;;;;;;5.03;2.40;;;17.90;58.60;;;;;;5026849;28;20461;-73
2021/04/03 09:17:28;;;;;;;2.73;2.23;;;18.00;57.40;;;;;;5032748;28;20481;-73
2021/04/03 09:20:06;;;;;;;3.70;2.53;;;18.30;57.40;;;;;;5026710;28;20461;-73
2021/04/03 09:22:37;;;;;;;2.70;2.33;;;18.60;56.80;;;;;;5034662;28;20451;-72
2021/04/03 09:25:08;;;;;;;3.90;2.70;;;17.80;55.90;;;;;;5037038;28;20463;-72
2021/04/03 09:27:36;;;;;;;2.87;2.43;;;16.10;57.60;;;;;;5031300;28;20550;-73
2021/04/03 09:30:05;;;;;;;3.40;2.60;;;15.20;59.10;;;;;;5026497;28;20464;-73
2021/04/03 09:32:49;;;;;;;5.70;2.73;;;14.30;62.10;;;;;;5026542;28;20546;-72
2021/04/03 09:35:22;;;;;;;4.33;2.87;;;14.70;61.50;;;;;;5026892;28;20496;-74
2021/04/03 09:38:02;;;;;;;3.43;2.50;;;14.10;62.80;;;;;;5025541;28;20906;-75
2021/04/03 09:40:37;;;;;;;5.03;2.70;;;14.80;64.00;;;;;;5026146;28;20833;-73
2021/04/03 09:43:05;;;;;;;5.10;2.20;;;16.20;61.40;;;;;;5044184;28;20877;-74
2021/04/03 09:45:32;;;;;;;6.20;3.00;;;17.50;59.20;;;;;;5045238;28;20463;-72
2021/04/03 09:47:59;;;;;;;4.93;2.97;;;18.20;57.00;;;;;;5045714;28;21409;-73
2021/04/03 09:50:26;;;;;;;6.07;3.17;;;17.40;57.20;;;;;;5044126;28;20491;-74
2021/04/03 09:52:54;;;;;;;3.57;2.90;;;17.40;57.40;;;;;;5037207;28;20464;-73
2021/04/03 09:55:32;;;;;;;5.40;2.57;;;18.00;57.90;;;;;;5043174;28;20451;-73
2021/04/03 09:58:00;;;;;;;3.80;2.57;;;19.00;57.10;;;;;;5045516;28;20494;-72
2021/04/03 10:00:28;;;;;;;4.83;2.57;;;20.40;55.00;;;;;;5046181;28;20464;-72
2021/04/03 10:02:54;;;;;;;4.80;2.60;;;20.90;53.90;;;;;;5045734;28;20470;-74
2021/04/03 10:05:21;;;;;;;3.23;2.57;;;21.40;53.50;;;;;;5043482;28;21019;-76
2021/04/03 10:07:47;;;;;;;4.03;2.60;;;21.30;53.10;;;;;;5045290;28;21005;-75
2021/04/03 10:10:14;;;;;;;3.37;2.93;;;21.50;51.60;;;;;;5044912;28;20463;-72
2021/04/03 10:12:40;;;;;;;4.13;2.50;;;21.30;51.90;;;;;;5046584;28;20456;-75
2021/04/03 10:15:10;;;;;;;2.97;2.67;;;21.20;53.80;;;;;;5047284;28;20904;-75
2021/04/03 10:17:37;;;;;;;4.37;2.77;;;21.40;51.60;;;;;;5043531;28;21031;-75
2021/04/03 10:20:08;;;;;;;4.00;2.80;;;21.70;52.40;;;;;;5032930;28;20583;-74
2021/04/03 10:22:42;;;;;;;3.90;2.50;;;22.00;51.70;;;;;;5026318;28;20491;-73
2021/04/03 10:25:24;;;;;;;5.77;2.67;;;22.20;51.50;;;;;;5047078;28;20490;-74
2021/04/03 10:27:50;;;;;;;3.63;2.53;;;22.40;50.30;;;;;;5033899;28;20969;-74
2021/04/03 10:30:18;;;;;;;3.80;2.67;;;22.40;51.10;;;;;;5033253;28;20945;-75
2021/04/03 10:32:47;;;;;;;4.23;3.03;;;22.40;49.90;;;;;;5047274;28;20475;-74
2021/04/03 10:35:19;;;;;;;3.93;2.40;;;22.50;49.30;;;;;;5032790;28;20837;-73
2021/04/03 10:37:46;;;;;;;5.20;2.90;;;22.40;51.60;;;;;;5040219;28;20588;-73
2021/04/03 10:40:17;;;;;;;3.63;2.60;;;22.90;49.50;;;;;;5036973;28;21174;-75
2021/04/03 10:42:46;;;;;;;3.20;2.90;;;22.60;49.80;;;;;;5025180;28;20520;-73
2021/04/03 10:45:17;;;;;;;5.33;2.73;;;21.40;50.80;;;;;;5024998;28;20452;-72
2021/04/03 10:47:43;;;;;;;4.83;2.67;;;20.30;52.40;;;;;;5024805;28;20480;-72
2021/04/03 10:50:12;;;;;;;6.13;2.80;;;20.30;52.40;;;;;;5025521;28;20493;-72
2021/04/03 10:52:38;;;;;;;3.27;2.63;;;21.00;52.70;;;;;;5025078;28;20540;-75
2021/04/03 10:55:06;;;;;;;4.23;2.93;;;22.10;51.30;;;;;;5026177;28;20460;-73
2021/04/03 10:57:32;;;;;;;4.50;3.60;;;23.10;50.00;;;;;;5025560;28;20616;-73
2021/04/03 10:59:59;;;;;;;4.20;2.73;;;23.60;49.10;;;;;;5025286;28;20467;-72
2021/04/03 11:02:25;;;;;;;4.00;2.90;;;23.60;48.90;;;;;;5026253;28;20468;-73
2021/04/03 11:04:51;;;;;;;4.03;2.80;;;23.80;49.10;;;;;;5025587;28;20464;-72
2021/04/03 11:07:19;;;;;;;3.93;2.60;;;23.10;49.60;;;;;;5025442;28;20482;-73
2021/04/03 11:09:45;;;;;;;3.40;3.00;;;22.90;49.90;;;;;;5024894;28;20581;-73
2021/04/03 11:12:13;;;;;;;3.57;2.80;;;22.80;49.80;;;;;;5024333;28;20551;-72
2021/04/03 11:14:41;;;;;;;3.13;2.63;;;21.20;51.60;;;;;;5024781;28;20967;-72
2021/04/03 11:17:07;;;;;;;3.77;2.37;;;20.60;51.30;;;;;;5025942;28;20534;-73
2021/04/03 11:19:34;;;;;;;7.00;3.63;;;19.20;52.30;;;;;;5030945;28;20455;-74
2021/04/03 11:22:00;;;;;;;3.23;2.70;;;17.80;54.20;;;;;;5041711;28;20543;-73
2021/04/03 11:24:27;;;;;;;3.67;3.00;;;17.90;56.40;;;;;;5028438;28;20459;-72
2021/04/03 11:26:54;;;;;;;4.17;3.23;;;19.10;55.40;;;;;;5034500;28;20470;-73
2021/04/03 11:29:20;;;;;;;3.70;2.80;;;20.40;53.70;;;;;;5023922;28;20567;-73
2021/04/03 11:31:47;;;;;;;3.67;2.50;;;20.00;51.40;;;;;;5024525;28;20460;-72
2021/04/03 11:34:13;;;;;;;8.07;2.87;;;19.20;52.60;;;;;;5042692;28;20463;-73
2021/04/03 11:36:40;;;;;;;5.53;3.03;;;17.80;54.50;;;;;;5043694;28;20632;-73
2021/04/03 11:39:08;;;;;;;4.93;3.20;;;17.10;54.40;;;;;;5042990;28;20483;-73
2021/04/03 11:41:35;;;;;;;6.37;3.57;;;17.20;55.30;;;;;;5044699;28;20467;-73
2021/04/03 11:44:02;;;;;;;4.53;3.07;;;16.40;54.60;;;;;;5044024;28;20459;-73
2021/04/03 11:46:28;;;;;;;5.03;2.80;;;15.50;56.20;;;;;;5042118;28;20455;-74
2021/04/03 11:48:54;;;;;;;3.90;2.67;;;14.80;56.30;;;;;;5043334;28;20491;-73
2021/04/03 11:51:21;;;;;;;2.57;2.37;;;14.00;57.70;;;;;;5043007;28;21333;-74
2021/04/03 11:53:50;;;;;;;3.83;2.50;;;13.50;58.50;;;;;;5044122;28;20467;-73
2021/04/03 11:56:16;;;;;;;4.57;2.87;;;13.10;59.80;;;;;;5043825;28;20533;-73
2021/04/03 11:58:43;;;;;;;3.27;2.17;;;13.90;58.70;;;;;;5044158;28;20573;-73
2021/04/03 12:01:10;;;;;;;2.37;2.17;;;16.00;57.70;;;;;;5046296;28;20459;-74
2021/04/03 12:03:36;;;;;;;3.33;2.10;;;18.10;55.30;;;;;;5047702;28;20474;-74
2021/04/03 12:06:03;;;;;;;3.70;2.50;;;18.30;50.60;;;;;;5047632;28;20550;-73
2021/04/03 12:08:29;;;;;;;3.37;2.13;;;17.70;51.90;;;;;;5047322;28;20475;-73
2021/04/03 12:10:56;;;;;;;4.97;2.80;;;16.70;53.30;;;;;;5048667;28;20505;-71
2021/04/03 12:13:23;;;;;;;3.00;2.53;;;15.40;53.90;;;;;;5049065;28;20575;-73
2021/04/03 12:15:50;;;;;;;4.57;3.03;;;14.50;55.80;;;;;;5048622;28;20605;-73
2021/04/03 12:18:17;;;;;;;4.10;2.53;;;13.80;57.80;;;;;;5048502;28;20532;-73
2021/04/03 12:20:43;;;;;;;4.40;2.67;;;14.10;58.80;;;;;;5038842;28;20463;-73
2021/04/03 12:23:10;;;;;;;3.53;2.80;;;15.70;57.90;;;;;;5038882;28;21312;-74
2021/04/03 12:25:37;;;;;;;6.40;2.60;;;17.70;55.70;;;;;;5036402;28;20522;-73
2021/04/03 12:28:03;;;;;;;3.73;2.23;;;19.20;55.00;;;;;;5028129;28;20476;-73
2021/04/03 12:30:30;;;;;;;3.70;2.87;;;19.90;54.60;;;;;;5027810;28;20460;-73
2021/04/03 12:33:01;;;;;;;4.17;2.70;;;20.60;51.00;;;;;;5059565;28;20555;-70
2021/04/03 12:35:30;;;;;;;2.80;2.30;;;19.30;51.60;;;;;;5032108;28;20456;-73
2021/04/03 12:37:57;;;;;;;2.23;2.03;;;18.10;52.30;;;;;;5028491;28;20484;-74
2021/04/03 12:40:26;;;;;;;3.77;2.00;;;17.10;52.90;;;;;;5037890;28;20467;-73
2021/04/03 12:42:52;;;;;;;3.13;2.40;;;16.90;54.40;;;;;;5036806;28;21338;-72
2021/04/03 12:45:23;;;;;;;3.20;2.10;;;17.90;51.80;;;;;;5036805;28;20828;-75
2021/04/03 12:47:52;;;;;;;3.60;2.20;;;19.20;50.70;;;;;;5047214;28;20513;-72
2021/04/03 12:50:22;;;;;;;3.00;2.40;;;19.30;50.70;;;;;;5040258;28;20555;-73
2021/04/03 12:52:49;;;;;;;2.87;2.23;;;18.60;49.80;;;;;;5043116;28;20461;-74
2021/04/03 12:55:16;;;;;;;3.40;2.20;;;17.40;52.20;;;;;;5047269;28;20830;-75
2021/04/03 12:57:45;;;;;;;3.03;2.53;;;16.20;53.00;;;;;;5033761;28;20484;-72
2021/04/03 13:00:15;;;;;;;3.60;2.60;;;15.40;54.60;;;;;;5034722;28;20551;-72
2021/04/03 13:02:41;;;;;;;3.07;2.57;;;14.50;56.10;;;;;;5026264;28;20575;-73
2021/04/03 13:05:14;;;;;;;4.43;2.50;;;14.20;56.80;;;;;;5026239;28;20475;-73
2021/04/03 13:07:41;;;;;;;2.37;2.17;;;13.80;57.70;;;;;;5034542;28;20646;-73
2021/04/03 13:10:09;;;;;;;2.53;2.33;;;13.40;57.70;;;;;;5038344;28;20466;-73
2021/04/03 13:12:35;;;;;;;2.90;2.57;;;13.20;59.40;;;;;;5045035;28;20462;-75
2021/04/03 13:15:02;;;;;;;4.87;2.70;;;13.20;59.50;;;;;;5047408;28;20469;-72
2021/04/03 13:17:28;;;;;;;4.00;2.57;;;13.20;58.50;;;;;;5046485;28;20522;-73
2021/04/03 13:19:55;;;;;;;3.37;2.03;;;13.40;59.00;;;;;;5043000;28;20462;-73